Time;durP1;ratioP1;P1;durP2;ratioP2;P2;SDS_P1;SDS_P2;PMS_P1;PMS_P2;Temp;Humidity;BMP_temperature;BMP_pressure;BME280_temperature;BME280_humidity;BME280_pressure;Samples;Min_cycle;Max_cycle;Signal;HPM_P1;HPM_P2
2023/03/11 00:01:00;;;;;;;3.90;2.15;;;8.60;79.60;;;;;;4998456;28;20033;-81
2023/03/11 00:03:27;;;;;;;4.43;2.40;;;8.60;79.60;;;;;;5016128;28;20025;-82
2023/03/11 00:05:54;;;;;;;4.85;2.78;;;8.60;79.70;;;;;;4998172;28;20049;-82
2023/03/11 00:08:23;;;;;;;4.32;2.35;;;8.60;79.70;;;;;;4998552;28;20107;-82
2023/03/11 00:10:52;;;;;;;4.13;2.20;;;8.60;79.70;;;;;;4998571;28;20321;-82
2023/03/11 00:13:18;;;;;;;4.65;2.30;;;8.60;79.70;;;;;;5016284;28;20427;-82
2023/03/11 00:15:47;;;;;;;4.03;2.20;;;8.60;79.70;;;;;;5016435;28;20026;-82
2023/03/11 00:18:12;;;;;;;4.10;2.28;;;8.60;79.80;;;;;;4998769;28;20026;-81
2023/03/11 00:20:41;;;;;;;3.30;2.00;;;8.60;79.80;;;;;;5016493;28;20030;-81
2023/03/11 00:23:08;;;;;;;3.60;2.20;;;8.60;79.80;;;;;;4998672;28;20124;-82
2023/03/11 00:25:35;;;;;;;3.95;2.25;;;8.60;79.80;;;;;;4998731;28;20084;-81
2023/03/11 00:28:01;;;;;;;5.47;2.30;;;8.60;79.90;;;;;;4998400;28;20034;-81
2023/03/11 00:30:27;;;;;;;4.40;2.35;;;8.60;79.80;;;;;;4998554;28;20033;-81
2023/03/11 00:32:55;;;;;;;3.80;2.05;;;8.60;79.90;;;;;;4998575;28;20128;-82
2023/03/11 00:35:24;;;;;;;4.10;2.20;;;8.60;79.90;;;;;;4998280;28;20022;-81
2023/03/11 00:37:53;;;;;;;4.63;2.25;;;8.60;79.90;;;;;;4998389;28;20026;-81
2023/03/11 00:40:21;;;;;;;4.43;2.20;;;8.60;79.90;;;;;;4998579;28;20030;-82
2023/03/11 00:42:47;;;;;;;4.68;2.22;;;8.60;80.00;;;;;;4998329;28;20514;-81
2023/03/11 00:45:13;;;;;;;4.30;2.10;;;8.60;80.00;;;;;;4998173;28;20036;-82
2023/03/11 00:47:39;;;;;;;4.15;2.30;;;8.60;80.00;;;;;;4998723;28;20029;-82
2023/03/11 00:50:07;;;;;;;4.00;2.30;;;8.60;80.00;;;;;;4998683;28;20795;-82
2023/03/11 00:52:32;;;;;;;3.00;1.83;;;8.60;80.00;;;;;;4998495;28;20030;-82
2023/03/11 00:54:58;;;;;;;3.65;2.10;;;8.60;80.10;;;;;;4998958;28;20385;-82
2023/03/11 00:57:24;;;;;;;2.50;1.67;;;8.60;80.10;;;;;;4997734;28;20068;-82
2023/03/11 00:59:49;;;;;;;3.33;1.90;;;8.60;80.10;;;;;;4998411;28;20126;-81
2023/03/11 01:02:15;;;;;;;3.45;1.85;;;8.60;80.10;;;;;;5016129;28;20029;-81
2023/03/11 01:04:40;;;;;;;3.40;2.00;;;8.60;80.10;;;;;;4998263;28;20373;-82
2023/03/11 01:07:06;;;;;;;3.95;2.15;;;8.50;80.10;;;;;;5015946;28;20026;-81
2023/03/11 01:09:31;;;;;;;4.22;2.00;;;8.60;80.10;;;;;;4998117;28;20022;-81
2023/03/11 01:11:57;;;;;;;3.60;2.00;;;8.60;80.10;;;;;;4998302;28;20535;-81
2023/03/11 01:14:22;;;;;;;2.88;1.67;;;8.60;80.10;;;;;;5015708;28;20030;-82
2023/03/11 01:16:48;;;;;;;3.40;1.83;;;8.60;80.20;;;;;;4998236;28;20484;-82
2023/03/11 01:19:13;;;;;;;2.90;1.70;;;8.60;80.20;;;;;;4998048;28;20259;-81
2023/03/11 01:21:39;;;;;;;3.08;1.60;;;8.60;80.20;;;;;;4998262;28;20369;-83
2023/03/11 01:24:05;;;;;;;3.10;1.70;;;8.50;80.10;;;;;;4997830;28;20026;-81
2023/03/11 01:26:30;;;;;;;3.38;1.80;;;8.50;80.20;;;;;;4998061;28;20029;-81
2023/03/11 01:28:55;;;;;;;3.28;1.83;;;8.60;80.20;;;;;;4997336;28;20064;-83
2023/03/11 01:31:21;;;;;;;3.95;1.92;;;8.60;80.20;;;;;;5015600;28;20025;-81
2023/03/11 01:33:47;;;;;;;3.40;1.80;;;8.50;80.20;;;;;;5015596;28;20030;-86
2023/03/11 01:36:12;;;;;;;3.28;1.70;;;8.50;80.20;;;;;;4997707;28;20503;-83
2023/03/11 01:38:37;;;;;;;3.35;2.00;;;8.50;80.20;;;;;;4997609;28;20014;-81
2023/03/11 01:41:03;;;;;;;3.13;1.85;;;8.50;80.20;;;;;;4997981;28;20518;-81
2023/03/11 01:43:43;;;;;;;3.40;1.70;;;8.60;80.30;;;;;;4997904;28;20064;-81
2023/03/11 01:46:17;;;;;;;3.55;2.00;;;8.50;80.80;;;;;;4996958;28;20466;-81
2023/03/11 01:48:51;;;;;;;3.25;1.83;;;8.50;80.20;;;;;;4997022;28;20026;-82
2023/03/11 01:51:22;;;;;;;3.30;1.80;;;8.50;80.30;;;;;;4996914;28;20400;-81
2023/03/11 01:53:48;;;;;;;3.72;1.55;;;8.50;80.30;;;;;;4997083;28;20477;-80
2023/03/11 01:56:14;;;;;;;3.58;1.83;;;8.50;80.30;;;;;;4997160;28;20053;-81
2023/03/11 01:58:44;;;;;;;3.45;1.90;;;8.60;80.30;;;;;;4996970;28;20564;-80
2023/03/11 02:01:11;;;;;;;3.38;1.70;;;8.60;80.40;;;;;;4996958;28;20125;-82
2023/03/11 02:03:39;;;;;;;3.58;1.85;;;8.50;80.30;;;;;;4996864;28;20484;-81
2023/03/11 02:06:11;;;;;;;3.28;1.90;;;8.50;80.30;;;;;;4996785;28;20037;-81
2023/03/11 02:08:39;;;;;;;2.30;1.48;;;8.50;80.30;;;;;;4996190;28;20026;-81
2023/03/11 02:11:08;;;;;;;3.65;1.83;;;8.50;80.30;;;;;;4996578;28;20026;-81
2023/03/11 02:13:35;;;;;;;2.92;1.50;;;8.50;80.30;;;;;;4996461;28;20026;-81
2023/03/11 02:16:02;;;;;;;3.47;1.73;;;8.50;80.30;;;;;;4996110;28;20057;-81
2023/03/11 02:18:28;;;;;;;3.10;1.80;;;8.50;80.90;;;;;;4995102;28;20028;-82
2023/03/11 02:21:21;;;;;;;2.47;1.55;;;8.50;80.30;;;;;;4995743;28;20030;-83
2023/03/11 02:23:51;;;;;;;4.65;1.70;;;8.50;80.30;;;;;;4996031;28;20028;-83
2023/03/11 02:26:28;;;;;;;2.33;1.50;;;8.50;80.40;;;;;;4995995;28;20060;-81
2023/03/11 02:28:55;;;;;;;3.75;1.67;;;8.50;80.40;;;;;;4995429;28;20038;-82
2023/03/11 02:31:21;;;;;;;3.05;1.60;;;8.50;80.40;;;;;;5013411;28;20513;-81
2023/03/11 02:33:49;;;;;;;2.63;1.60;;;8.50;80.40;;;;;;4995550;28;20053;-85
2023/03/11 02:36:37;;;;;;;3.05;1.70;;;8.50;80.40;;;;;;4995518;28;20447;-81
2023/03/11 02:39:03;;;;;;;3.67;1.67;;;8.50;80.50;;;;;;5013224;28;20026;-82
2023/03/11 02:41:31;;;;;;;3.00;1.60;;;8.50;80.40;;;;;;5013994;28;20022;-81
2023/03/11 02:43:58;;;;;;;2.92;1.60;;;8.50;80.40;;;;;;4995992;28;20406;-79
2023/03/11 02:46:24;;;;;;;2.85;1.60;;;8.50;80.50;;;;;;4996351;28;20087;-81
2023/03/11 02:48:51;;;;;;;3.13;1.67;;;8.50;80.50;;;;;;4996488;28;20431;-81
2023/03/11 02:51:16;;;;;;;2.83;1.40;;;8.50;80.50;;;;;;5013918;28;20029;-84
2023/03/11 02:53:48;;;;;;;2.72;1.63;;;8.50;80.50;;;;;;4996244;28;20130;-81
2023/03/11 02:56:13;;;;;;;3.63;1.75;;;8.50;80.50;;;;;;4996288;28;20026;-81
2023/03/11 02:58:39;;;;;;;2.90;1.52;;;8.50;80.50;;;;;;4996195;28;20026;-82
2023/03/11 03:01:04;;;;;;;3.47;1.80;;;8.50;80.50;;;;;;4996164;28;20445;-82
2023/03/11 03:03:30;;;;;;;2.60;1.40;;;8.50;80.50;;;;;;4996352;28;20026;-81
2023/03/11 03:05:55;;;;;;;2.83;1.63;;;8.50;80.50;;;;;;4995914;28;20476;-81
2023/03/11 03:08:21;;;;;;;2.75;1.52;;;8.50;80.50;;;;;;4995745;28;20037;-81
2023/03/11 03:10:46;;;;;;;3.05;1.75;;;8.50;80.60;;;;;;4995607;28;20060;-81
2023/03/11 03:13:12;;;;;;;3.42;1.50;;;8.50;80.50;;;;;;5013287;28;20491;-82
2023/03/11 03:15:37;;;;;;;1.92;1.25;;;8.50;80.60;;;;;;5013206;28;20048;-81
2023/03/11 03:18:03;;;;;;;2.85;1.70;;;8.50;80.50;;;;;;4995497;28;20069;-82
2023/03/11 03:20:29;;;;;;;2.30;1.55;;;8.50;80.60;;;;;;5012827;28;20058;-82
2023/03/11 03:22:54;;;;;;;3.55;1.58;;;8.50;80.60;;;;;;4996070;28;20113;-82
2023/03/11 03:25:20;;;;;;;2.72;1.55;;;8.50;80.60;;;;;;5013587;28;20022;-80
2023/03/11 03:27:45;;;;;;;3.00;1.50;;;8.50;80.60;;;;;;4996052;28;20057;-80
2023/03/11 03:30:11;;;;;;;2.80;1.50;;;8.50;80.60;;;;;;4994228;28;20029;-83
2023/03/11 03:32:36;;;;;;;3.58;1.60;;;8.50;80.60;;;;;;4992854;28;20113;-80
2023/03/11 03:35:03;;;;;;;2.60;1.50;;;8.50;80.60;;;;;;4993203;28;20058;-80
2023/03/11 03:37:33;;;;;;;2.22;1.40;;;8.50;80.60;;;;;;4993066;28;20018;-80
2023/03/11 03:39:59;;;;;;;2.70;1.50;;;8.50;80.60;;;;;;4992343;28;20037;-80
2023/03/11 03:42:24;;;;;;;2.78;1.50;;;8.50;80.60;;;;;;4992812;28;20030;-80
2023/03/11 03:44:51;;;;;;;2.15;1.25;;;8.50;80.60;;;;;;4992570;28;20061;-80
2023/03/11 03:47:17;;;;;;;2.22;1.42;;;8.50;80.60;;;;;;4992916;28;20088;-80
2023/03/11 03:49:43;;;;;;;2.35;1.40;;;8.50;80.60;;;;;;4992329;28;20065;-80
2023/03/11 03:52:09;;;;;;;2.33;1.35;;;8.50;80.70;;;;;;4993946;28;20054;-80
2023/03/11 03:54:35;;;;;;;2.58;1.50;;;8.50;80.60;;;;;;4993028;28;20018;-80
2023/03/11 03:57:01;;;;;;;2.63;1.55;;;8.50;80.70;;;;;;4994252;28;20405;-82
2023/03/11 03:59:27;;;;;;;3.40;1.58;;;8.50;80.70;;;;;;4992773;28;20396;-81
2023/03/11 04:01:52;;;;;;;2.40;1.50;;;8.50;80.70;;;;;;4992764;28;20034;-80
2023/03/11 04:04:18;;;;;;;3.20;1.50;;;8.50;80.70;;;;;;4992682;28;20023;-80
2023/03/11 04:06:43;;;;;;;2.67;1.50;;;8.50;80.60;;;;;;4994596;28;20034;-80
2023/03/11 04:09:10;;;;;;;2.95;1.50;;;8.50;80.70;;;;;;4993081;28;20064;-81
2023/03/11 04:11:36;;;;;;;2.20;1.40;;;8.50;80.70;;;;;;4992887;28;20077;-81
2023/03/11 04:14:03;;;;;;;2.22;1.30;;;8.50;80.60;;;;;;4992606;28;20029;-83
2023/03/11 04:16:29;;;;;;;2.47;1.40;;;8.50;80.70;;;;;;4994022;28;20085;-81
2023/03/11 04:18:54;;;;;;;3.08;1.30;;;8.50;80.70;;;;;;4992840;28;20029;-80
2023/03/11 04:21:20;;;;;;;2.20;1.45;;;8.50;80.70;;;;;;4992845;28;20034;-82
2023/03/11 04:23:45;;;;;;;2.22;1.42;;;8.50;80.70;;;;;;4994341;28;20045;-80
2023/03/11 04:26:11;;;;;;;4.00;1.50;;;8.50;80.70;;;;;;4975851;28;20035;-82
2023/03/11 04:28:37;;;;;;;2.22;1.33;;;8.50;80.70;;;;;;5046379;23;20023;-87
2023/03/11 04:31:03;;;;;;;2.17;1.35;;;8.50;80.70;;;;;;4963130;28;20043;-87
2023/03/11 04:33:29;;;;;;;2.28;1.50;;;8.50;80.70;;;;;;4984257;28;20034;-87
2023/03/11 04:35:54;;;;;;;2.88;1.33;;;8.50;80.70;;;;;;4966581;28;20065;-86
2023/03/11 04:38:20;;;;;;;1.70;1.30;;;8.50;80.70;;;;;;4966354;28;20031;-87
2023/03/11 04:40:45;;;;;;;2.95;1.60;;;8.50;80.70;;;;;;4966724;28;20026;-86
2023/03/11 04:43:11;;;;;;;2.25;1.30;;;8.50;80.70;;;;;;4965734;28;20521;-87
2023/03/11 04:45:41;;;;;;;2.20;1.33;;;8.50;80.70;;;;;;4964851;28;20382;-86
2023/03/11 04:48:07;;;;;;;2.70;1.45;;;8.50;80.70;;;;;;4964998;28;20027;-86
2023/03/11 04:50:33;;;;;;;2.20;1.30;;;8.50;80.70;;;;;;4964501;28;20150;-86
2023/03/11 04:52:58;;;;;;;2.42;1.35;;;8.50;81.20;;;;;;4964381;28;20051;-86
2023/03/11 04:55:24;;;;;;;2.58;1.30;;;8.50;80.70;;;;;;4963925;28;20034;-85
2023/03/11 04:57:49;;;;;;;2.65;1.52;;;8.40;80.70;;;;;;4964519;28;20019;-85
2023/03/11 05:00:15;;;;;;;1.80;1.27;;;8.50;80.70;;;;;;4964039;28;20030;-86
2023/03/11 05:02:41;;;;;;;3.13;1.63;;;8.50;80.80;;;;;;4964246;28;20375;-85
2023/03/11 05:05:08;;;;;;;2.08;1.45;;;8.50;80.80;;;;;;4981271;28;20486;-87
2023/03/11 05:07:35;;;;;;;2.22;1.20;;;8.40;80.70;;;;;;4981494;28;20398;-86
2023/03/11 05:10:01;;;;;;;1.50;1.20;;;8.50;80.80;;;;;;4981027;28;20030;-88
2023/03/11 05:12:27;;;;;;;2.70;1.38;;;8.40;80.70;;;;;;4985497;28;20105;-87
2023/03/11 05:14:53;;;;;;;2.50;1.35;;;8.50;80.70;;;;;;4969161;28;20082;-85
2023/03/11 05:17:18;;;;;;;2.25;1.30;;;8.40;80.70;;;;;;4969575;28;20030;-87
2023/03/11 05:19:44;;;;;;;2.05;1.40;;;8.50;80.80;;;;;;4967177;28;20441;-89
2023/03/11 05:22:10;;;;;;;2.08;1.35;;;8.50;80.80;;;;;;4984027;28;20030;-86
2023/03/11 05:24:36;;;;;;;1.70;1.20;;;8.50;80.80;;;;;;4966381;28;20027;-87
2023/03/11 05:27:02;;;;;;;1.75;1.20;;;8.50;80.80;;;;;;4965516;28;20053;-85
2023/03/11 05:29:28;;;;;;;1.75;1.20;;;8.40;80.70;;;;;;4963519;28;20508;-85
2023/03/11 05:31:53;;;;;;;2.58;1.20;;;8.50;80.80;;;;;;4981867;28;20027;-86
2023/03/11 05:34:19;;;;;;;2.67;1.20;;;8.50;80.70;;;;;;4973904;28;20094;-87
2023/03/11 05:36:45;;;;;;;2.85;1.58;;;8.40;80.70;;;;;;4964150;28;20026;-88
2023/03/11 05:39:10;;;;;;;2.88;1.40;;;8.40;80.70;;;;;;4964181;28;20089;-85
2023/03/11 05:41:36;;;;;;;2.42;1.30;;;8.50;80.80;;;;;;4958286;28;20034;-85
2023/03/11 05:44:02;;;;;;;2.67;1.40;;;8.40;80.70;;;;;;4955678;28;20059;-86
2023/03/11 05:46:27;;;;;;;2.60;1.25;;;8.50;80.80;;;;;;4963291;28;20019;-87
2023/03/11 05:48:53;;;;;;;2.55;1.20;;;8.50;80.80;;;;;;4958131;28;20057;-85
2023/03/11 05:51:19;;;;;;;2.05;1.15;;;8.40;80.70;;;;;;4959609;28;20180;-85
2023/03/11 05:53:47;;;;;;;1.58;1.00;;;8.50;80.80;;;;;;4978126;28;20489;-87
2023/03/11 05:56:13;;;;;;;2.60;1.40;;;8.40;80.70;;;;;;4957224;28;20453;-86
2023/03/11 05:58:39;;;;;;;1.65;1.20;;;8.40;80.70;;;;;;4959499;28;20027;-87
2023/03/11 06:01:09;;;;;;;3.72;1.38;;;8.40;80.70;;;;;;4959554;28;20401;-87
2023/03/11 06:03:35;;;;;;;2.65;1.30;;;8.50;80.80;;;;;;4957950;28;20018;-86
2023/03/11 06:06:01;;;;;;;1.80;1.20;;;8.50;80.80;;;;;;4958284;28;20564;-86
2023/03/11 06:08:26;;;;;;;1.73;1.13;;;8.50;80.80;;;;;;4958059;28;20030;-86
2023/03/11 06:10:59;;;;;;;2.50;1.42;;;8.40;80.70;;;;;;4957947;28;20393;-87
2023/03/11 06:13:24;;;;;;;2.35;1.20;;;8.40;80.70;;;;;;4977053;28;20033;-86
2023/03/11 06:15:50;;;;;;;2.38;1.20;;;8.40;80.70;;;;;;4959590;28;20113;-88
2023/03/11 06:18:15;;;;;;;3.65;1.30;;;8.40;80.70;;;;;;4958279;28;20027;-87
2023/03/11 06:20:41;;;;;;;1.73;1.10;;;8.40;80.70;;;;;;4957948;28;20026;-87
2023/03/11 06:23:06;;;;;;;1.75;1.10;;;8.40;80.70;;;;;;4976093;28;20031;-86
2023/03/11 06:25:32;;;;;;;2.35;1.15;;;8.40;80.70;;;;;;4975040;28;20524;-88
2023/03/11 06:27:57;;;;;;;2.03;1.10;;;8.50;80.80;;;;;;4975620;28;20023;-86
2023/03/11 06:30:23;;;;;;;1.63;1.10;;;8.40;80.70;;;;;;4957488;28;20102;-87
2023/03/11 06:32:48;;;;;;;2.33;1.20;;;8.40;80.70;;;;;;4957751;28;20027;-87
2023/03/11 06:35:14;;;;;;;2.10;1.02;;;8.50;80.80;;;;;;4956865;28;20054;-87
2023/03/11 06:37:40;;;;;;;3.22;1.10;;;8.50;80.80;;;;;;4957171;28;20075;-86
2023/03/11 06:40:08;;;;;;;3.22;1.20;;;8.40;80.70;;;;;;4971563;28;20477;-81
2023/03/11 06:42:36;;;;;;;3.38;1.25;;;8.40;80.70;;;;;;4952207;28;20118;-83
2023/03/11 06:45:02;;;;;;;2.60;1.27;;;8.60;80.80;;;;;;4953389;28;20034;-83
2023/03/11 06:47:28;;;;;;;2.50;1.20;;;8.30;80.70;;;;;;4955210;28;20038;-79
2023/03/11 06:49:53;;;;;;;2.33;1.08;;;8.40;80.70;;;;;;4955279;28;20027;-81
2023/03/11 06:52:19;;;;;;;2.38;1.33;;;8.40;80.70;;;;;;4953211;28;20062;-86
2023/03/11 06:54:45;;;;;;;3.00;1.00;;;8.50;80.70;;;;;;4936250;29;20023;-79
2023/03/11 06:57:11;;;;;;;1.58;1.00;;;8.50;80.70;;;;;;4940097;29;20027;-81
2023/03/11 06:59:37;;;;;;;1.83;0.90;;;8.50;80.70;;;;;;4959050;28;20027;-83
2023/03/11 07:02:04;;;;;;;2.53;1.13;;;8.50;80.70;;;;;;4939577;29;20122;-83
2023/03/11 07:04:30;;;;;;;1.92;1.13;;;8.50;80.60;;;;;;4936848;29;20042;-84
2023/03/11 07:06:56;;;;;;;1.90;1.00;;;8.50;80.50;;;;;;4939601;29;20051;-85
2023/03/11 07:09:24;;;;;;;2.67;1.10;;;8.50;80.40;;;;;;4939707;29;20023;-83
2023/03/11 07:11:52;;;;;;;1.98;1.10;;;8.50;80.40;;;;;;4938944;29;20027;-83
2023/03/11 07:14:18;;;;;;;2.03;1.05;;;8.60;80.30;;;;;;4956727;28;20037;-83
2023/03/11 07:16:44;;;;;;;1.88;1.05;;;8.60;80.30;;;;;;4938560;29;20082;-83
2023/03/11 07:19:10;;;;;;;2.05;1.08;;;8.50;80.20;;;;;;4939259;29;20554;-84
2023/03/11 07:21:36;;;;;;;2.83;1.25;;;8.60;80.10;;;;;;4939672;29;20042;-83
2023/03/11 07:24:02;;;;;;;2.65;1.05;;;8.60;80.00;;;;;;4957058;29;20027;-83
2023/03/11 07:26:29;;;;;;;1.73;1.08;;;8.70;79.70;;;;;;4953991;28;20039;-83
2023/03/11 07:28:55;;;;;;;2.47;1.00;;;8.90;79.60;;;;;;4934490;29;20921;-84
2023/03/11 07:31:30;;;;;;;3.38;0.90;;;8.90;79.30;;;;;;4937470;29;20027;-84
2023/03/11 07:34:01;;;;;;;4.32;1.20;;;8.90;78.90;;;;;;4937917;29;20019;-86
2023/03/11 07:36:27;;;;;;;2.40;1.10;;;9.00;78.60;;;;;;4937987;29;20024;-83
2023/03/11 07:39:04;;;;;;;3.10;1.02;;;9.10;78.40;;;;;;4955903;28;20035;-83
2023/03/11 07:41:31;;;;;;;3.33;0.90;;;9.10;78.10;;;;;;4937824;29;20378;-83
2023/03/11 07:43:59;;;;;;;2.45;1.02;;;9.20;77.90;;;;;;4937115;29;20132;-79
2023/03/11 07:46:26;;;;;;;5.10;0.88;;;9.20;77.70;;;;;;4967441;28;20031;-83
2023/03/11 07:48:52;;;;;;;3.00;1.15;;;9.30;77.60;;;;;;4940827;29;20031;-83
2023/03/11 07:51:17;;;;;;;2.45;0.90;;;9.30;77.50;;;;;;4940995;29;20046;-86
2023/03/11 07:53:44;;;;;;;5.68;2.00;;;9.40;77.30;;;;;;4942590;29;20079;-84
2023/03/11 07:56:12;;;;;;;4.45;1.55;;;9.40;77.20;;;;;;4941724;29;20462;-84
2023/03/11 07:58:38;;;;;;;1.88;1.00;;;9.40;77.10;;;;;;4940172;29;20027;-83
2023/03/11 08:01:06;;;;;;;2.92;1.08;;;9.50;77.10;;;;;;4938500;29;20031;-84
2023/03/11 08:03:33;;;;;;;2.63;1.02;;;9.60;76.90;;;;;;4935854;29;20027;-85
2023/03/11 08:05:59;;;;;;;2.47;1.00;;;9.60;76.90;;;;;;4937888;29;20038;-82
2023/03/11 08:08:24;;;;;;;3.20;1.58;;;9.60;76.70;;;;;;4940573;28;20035;-87
2023/03/11 08:10:50;;;;;;;2.45;0.90;;;9.60;76.50;;;;;;4957436;28;20031;-80
2023/03/11 08:13:15;;;;;;;2.60;1.02;;;9.70;76.50;;;;;;4939622;29;20047;-82
2023/03/11 08:15:41;;;;;;;4.22;1.10;;;9.70;76.30;;;;;;4938759;29;20141;-79
2023/03/11 08:18:07;;;;;;;2.88;1.10;;;9.70;76.20;;;;;;4938843;29;20023;-81
2023/03/11 08:20:32;;;;;;;3.13;1.10;;;9.80;76.10;;;;;;4937821;29;20086;-82
2023/03/11 08:22:58;;;;;;;3.72;1.10;;;9.80;76.00;;;;;;4957782;28;20053;-82
2023/03/11 08:25:24;;;;;;;3.42;1.00;;;9.80;75.80;;;;;;4943104;29;20027;-85
2023/03/11 08:27:49;;;;;;;3.88;1.10;;;9.80;75.70;;;;;;4943150;29;20532;-83
2023/03/11 08:30:15;;;;;;;1.80;1.00;;;9.90;75.70;;;;;;4941593;29;20078;-81
2023/03/11 08:32:40;;;;;;;2.08;0.93;;;9.90;75.70;;;;;;4948214;29;20118;-87
2023/03/11 08:35:06;;;;;;;2.80;1.00;;;10.00;75.50;;;;;;4952002;29;20193;-87
2023/03/11 08:37:32;;;;;;;2.70;1.10;;;10.00;75.50;;;;;;4946083;29;20058;-84
2023/03/11 08:39:57;;;;;;;1.58;0.90;;;10.00;75.20;;;;;;4946353;29;20031;-86
2023/03/11 08:42:23;;;;;;;2.17;1.00;;;10.00;75.30;;;;;;4946575;29;20039;-83
2023/03/11 08:44:48;;;;;;;2.70;1.00;;;10.10;75.20;;;;;;4962641;28;20459;-86
2023/03/11 08:47:14;;;;;;;2.22;0.90;;;10.10;75.00;;;;;;4941579;29;20140;-83
2023/03/11 08:49:39;;;;;;;3.05;1.00;;;10.10;75.10;;;;;;4943943;29;20058;-82
2023/03/11 08:52:05;;;;;;;2.90;1.00;;;10.20;75.00;;;;;;4944095;29;20033;-83
2023/03/11 08:54:31;;;;;;;1.90;1.00;;;10.20;74.90;;;;;;4944091;29;20027;-82
2023/03/11 08:57:01;;;;;;;4.10;1.20;;;10.20;74.90;;;;;;4942347;29;20038;-85
2023/03/11 08:59:28;;;;;;;2.03;1.00;;;10.20;74.80;;;;;;4941187;29;20079;-82
2023/03/11 09:01:54;;;;;;;1.55;0.90;;;10.20;74.70;;;;;;4959585;29;20031;-82
2023/03/11 09:04:19;;;;;;;2.80;1.10;;;10.30;74.90;;;;;;4940828;29;20203;-81
2023/03/11 09:06:47;;;;;;;3.25;1.00;;;10.30;74.80;;;;;;4960705;29;20043;-82
2023/03/11 09:09:15;;;;;;;2.65;0.88;;;10.30;74.70;;;;;;4941120;29;20385;-79
2023/03/11 09:11:40;;;;;;;2.97;1.08;;;10.40;74.70;;;;;;4938409;29;20561;-80
2023/03/11 09:14:06;;;;;;;5.00;0.98;;;10.40;74.50;;;;;;4939608;29;20029;-84
2023/03/11 09:16:32;;;;;;;4.05;1.17;;;10.30;74.50;;;;;;4958423;28;20023;-81
2023/03/11 09:18:59;;;;;;;2.53;1.00;;;10.40;74.30;;;;;;4939976;29;20023;-81
2023/03/11 09:21:24;;;;;;;4.82;1.02;;;10.40;74.10;;;;;;4941018;29;20036;-82
2023/03/11 09:23:50;;;;;;;2.67;1.05;;;10.40;74.30;;;;;;4962859;28;20041;-81
2023/03/11 09:26:16;;;;;;;3.15;1.10;;;10.50;74.00;;;;;;4956310;29;20024;-82
2023/03/11 09:28:42;;;;;;;3.15;1.00;;;10.50;73.90;;;;;;4940615;29;20122;-80
2023/03/11 09:31:08;;;;;;;2.42;1.00;;;10.50;74.10;;;;;;4957542;28;20030;-83
2023/03/11 09:33:38;;;;;;;3.78;1.02;;;10.40;74.10;;;;;;4959542;28;20027;-84
2023/03/11 09:36:05;;;;;;;3.55;1.08;;;10.50;74.50;;;;;;4960281;28;20118;-82
2023/03/11 09:38:30;;;;;;;3.08;1.00;;;10.50;74.10;;;;;;4960862;28;20153;-82
2023/03/11 09:41:01;;;;;;;3.45;1.00;;;10.50;74.10;;;;;;4960561;28;20027;-86
2023/03/11 09:43:51;;;;;;;2.80;1.13;;;10.50;74.10;;;;;;4960440;28;20030;-83
2023/03/11 09:46:50;;;;;;;2.90;0.93;;;10.50;74.10;;;;;;4960027;28;20369;-84
2023/03/11 09:49:44;;;;;;;3.83;1.13;;;10.50;73.90;;;;;;4960597;28;20031;-81
2023/03/11 09:52:18;;;;;;;3.25;1.00;;;10.60;74.20;;;;;;4960509;28;20031;-86
2023/03/11 09:54:47;;;;;;;2.83;0.90;;;10.60;74.30;;;;;;4959990;28;20026;-84
2023/03/11 09:57:21;;;;;;;3.72;1.15;;;10.60;74.00;;;;;;4965399;28;20134;-84
2023/03/11 09:59:47;;;;;;;3.63;1.00;;;10.60;73.70;;;;;;4964571;28;20034;-83
2023/03/11 10:02:25;;;;;;;2.80;0.98;;;10.60;73.50;;;;;;4965502;28;20094;-81
2023/03/11 10:05:14;;;;;;;3.20;1.35;;;10.60;73.80;;;;;;4963531;28;20059;-83
2023/03/11 10:07:44;;;;;;;3.85;1.20;;;10.70;73.80;;;;;;4963312;28;20840;-82
2023/03/11 10:10:13;;;;;;;4.32;1.20;;;10.70;73.50;;;;;;4962612;28;20489;-82
2023/03/11 10:12:51;;;;;;;2.55;1.10;;;10.60;73.50;;;;;;4960797;28;20027;-84
2023/03/11 10:15:47;;;;;;;2.17;1.00;;;10.70;73.20;;;;;;4958002;28;20027;-83
2023/03/11 10:18:27;;;;;;;2.72;1.10;;;10.70;73.10;;;;;;4957305;28;20023;-81
2023/03/11 10:21:04;;;;;;;1.90;1.00;;;10.70;73.10;;;;;;4957545;28;20425;-80
2023/03/11 10:23:50;;;;;;;4.13;1.10;;;10.70;73.00;;;;;;4972254;28;20053;-81
2023/03/11 10:26:30;;;;;;;2.97;1.08;;;10.70;73.40;;;;;;4921860;28;20129;-80
2023/03/11 10:29:02;;;;;;;1.88;0.82;;;10.80;73.00;;;;;;4959202;28;20031;-81
2023/03/11 10:32:01;;;;;;;3.38;1.00;;;10.60;72.90;;;;;;4960688;28;20026;-81
2023/03/11 10:34:41;;;;;;;2.38;1.10;;;10.80;72.70;;;;;;4978219;28;20375;-80
2023/03/11 10:37:18;;;;;;;2.33;1.02;;;10.80;72.70;;;;;;4979994;28;20019;-83
2023/03/11 10:39:47;;;;;;;3.65;1.20;;;10.80;73.00;;;;;;4961789;28;20081;-80
2023/03/11 10:42:16;;;;;;;3.85;1.10;;;10.80;73.20;;;;;;4978428;28;20707;-80
2023/03/11 10:44:42;;;;;;;3.65;1.05;;;10.80;73.00;;;;;;4960753;28;20034;-80
2023/03/11 10:47:23;;;;;;;3.40;1.00;;;10.80;72.90;;;;;;4959764;28;20122;-80
2023/03/11 10:49:49;;;;;;;2.30;1.20;;;10.70;72.80;;;;;;4948975;29;20032;-81
2023/03/11 10:52:15;;;;;;;3.42;0.88;;;10.80;72.80;;;;;;4940277;29;20038;-81
2023/03/11 10:54:46;;;;;;;2.45;1.10;;;10.80;72.80;;;;;;4939711;29;20118;-81
2023/03/11 10:57:31;;;;;;;3.05;1.00;;;10.80;72.90;;;;;;4942366;29;20122;-81
2023/03/11 11:00:00;;;;;;;3.33;1.00;;;10.80;73.00;;;;;;4966736;29;20046;-81
2023/03/11 11:02:25;;;;;;;3.10;1.02;;;10.80;72.90;;;;;;4944428;29;20031;-81
2023/03/11 11:05:21;;;;;;;2.10;1.00;;;10.80;73.10;;;;;;4940250;29;20637;-81
2023/03/11 11:07:49;;;;;;;3.85;1.20;;;10.90;72.90;;;;;;4941295;29;20422;-79
2023/03/11 11:10:19;;;;;;;3.33;1.13;;;10.90;73.00;;;;;;4959653;28;20500;-80
2023/03/11 11:13:00;;;;;;;2.00;0.90;;;10.80;72.80;;;;;;4960253;28;20034;-79
2023/03/11 11:15:33;;;;;;;3.28;1.00;;;10.80;73.00;;;;;;4956867;28;20026;-82
2023/03/11 11:18:02;;;;;;;3.85;1.10;;;10.80;73.40;;;;;;4961724;28;20063;-82
2023/03/11 11:20:29;;;;;;;2.70;1.20;;;10.80;72.90;;;;;;4958750;28;20405;-85
2023/03/11 11:22:57;;;;;;;2.10;1.10;;;10.80;72.70;;;;;;4959059;28;20083;-82
2023/03/11 11:25:41;;;;;;;2.72;0.90;;;10.80;72.70;;;;;;4974500;28;20118;-86
2023/03/11 11:28:17;;;;;;;2.47;1.00;;;10.90;72.80;;;;;;4956698;28;20027;-78
2023/03/11 11:31:00;;;;;;;2.83;1.10;;;10.90;72.80;;;;;;4957380;28;20093;-81
2023/03/11 11:33:29;;;;;;;2.42;1.10;;;10.90;72.90;;;;;;4956954;28;20023;-80
2023/03/11 11:36:11;;;;;;;2.30;1.10;;;10.90;73.00;;;;;;4956279;28;20019;-79
2023/03/11 11:38:36;;;;;;;1.83;1.00;;;10.90;72.80;;;;;;4957102;28;20105;-82
2023/03/11 11:41:03;;;;;;;2.75;1.00;;;10.90;72.90;;;;;;4954678;28;20775;-84
2023/03/11 11:43:40;;;;;;;2.72;1.05;;;10.90;72.90;;;;;;4971336;28;20035;-79
2023/03/11 11:46:30;;;;;;;2.72;0.82;;;10.90;73.00;;;;;;4986421;28;20385;-84
2023/03/11 11:49:22;;;;;;;2.15;0.80;;;10.90;72.90;;;;;;4952612;28;20103;-83
2023/03/11 11:51:56;;;;;;;2.13;1.10;;;10.90;73.10;;;;;;4962035;28;20039;-80
2023/03/11 11:54:30;;;;;;;1.98;1.00;;;10.90;73.10;;;;;;4937339;29;20091;-80
2023/03/11 11:56:56;;;;;;;2.72;1.00;;;10.90;72.90;;;;;;4952756;29;20027;-82
2023/03/11 11:59:23;;;;;;;2.90;1.13;;;10.90;73.10;;;;;;4952355;28;20023;-81
2023/03/11 12:02:20;;;;;;;2.50;1.00;;;10.90;72.90;;;;;;4955248;29;20020;-82
2023/03/11 12:04:53;;;;;;;2.15;1.00;;;10.90;72.80;;;;;;4954345;29;20020;-81
2023/03/11 12:07:53;;;;;;;1.90;1.20;;;10.90;72.90;;;;;;4955098;29;20031;-84
2023/03/11 12:10:50;;;;;;;2.88;1.13;;;10.90;72.70;;;;;;4935249;29;20091;-83
2023/03/11 12:13:48;;;;;;;2.90;0.93;;;10.90;72.90;;;;;;4934556;29;20028;-81
2023/03/11 12:16:42;;;;;;;2.90;1.10;;;10.90;72.80;;;;;;4934600;29;20062;-82
2023/03/11 12:19:10;;;;;;;3.58;1.00;;;10.80;72.70;;;;;;4934004;29;20509;-81
2023/03/11 12:22:07;;;;;;;3.50;1.15;;;10.80;72.80;;;;;;4952180;29;20031;-81
2023/03/11 12:24:32;;;;;;;6.28;1.23;;;10.80;72.70;;;;;;4935451;29;20026;-82
2023/03/11 12:27:04;;;;;;;5.40;1.10;;;10.80;72.70;;;;;;4934740;29;20031;-83
2023/03/11 12:29:39;;;;;;;2.70;1.10;;;10.80;72.60;;;;;;4934231;29;20392;-79
2023/03/11 12:32:06;;;;;;;2.42;1.13;;;10.80;72.60;;;;;;4934715;29;20100;-79
2023/03/11 12:34:34;;;;;;;2.33;0.95;;;10.80;72.70;;;;;;4952564;29;20031;-82
2023/03/11 12:37:04;;;;;;;3.35;1.10;;;10.80;72.70;;;;;;4935469;29;20058;-81
2023/03/11 12:39:33;;;;;;;6.53;1.10;;;10.80;73.00;;;;;;4952129;28;20494;-79
2023/03/11 12:42:17;;;;;;;3.60;1.15;;;10.70;73.00;;;;;;4952124;29;20110;-81
2023/03/11 12:44:44;;;;;;;3.22;0.95;;;10.70;73.10;;;;;;4951759;29;20023;-80
2023/03/11 12:47:09;;;;;;;5.78;1.30;;;10.70;72.90;;;;;;4935286;29;20035;-81
2023/03/11 12:49:46;;;;;;;3.67;1.10;;;10.70;73.00;;;;;;4935560;29;20089;-80
2023/03/11 12:52:12;;;;;;;3.08;1.17;;;10.70;73.00;;;;;;4935441;29;20032;-80
2023/03/11 12:54:43;;;;;;;10.52;1.70;;;10.70;72.90;;;;;;4938585;29;20020;-79
2023/03/11 12:57:17;;;;;;;14.35;1.65;;;10.70;71.40;;;;;;4939991;29;20050;-81
2023/03/11 12:59:46;;;;;;;10.32;1.83;;;10.60;71.10;;;;;;4940198;29;20569;-80
2023/03/11 13:02:31;;;;;;;10.15;1.20;;;10.60;71.70;;;;;;4939394;29;20091;-82